Time;durP1;ratioP1;P1;durP2;ratioP2;P2;SDS_P1;SDS_P2;PMS_P1;PMS_P2;Temp;Humidity;BMP_temperature;BMP_pressure;BME280_temperature;BME280_humidity;BME280_pressure;Samples;Min_cycle;Max_cycle;Signal;HPM_P1;HPM_P2
2021/12/14 00:01:13;;;;;;;32.38;26.05;;;11.40;99.90;;;11.58;84.70;102548.22;5113079;28;20554;-70
2021/12/14 00:03:46;;;;;;;30.65;25.55;;;11.30;99.90;;;11.54;85.14;102546.38;5095263;28;20059;-70
2021/12/14 00:06:20;;;;;;;39.60;28.52;;;11.30;99.90;;;11.49;85.42;102557.75;5112961;28;20051;-71
2021/12/14 00:08:54;;;;;;;36.05;27.67;;;11.20;99.90;;;11.52;85.44;102566.66;5113033;28;20052;-70
2021/12/14 00:11:35;;;;;;;36.35;28.23;;;11.20;99.90;;;11.56;85.44;102564.94;5113130;28;20051;-71
2021/12/14 00:14:26;;;;;;;36.95;29.25;;;11.30;99.90;;;11.50;85.66;102576.31;5113403;28;20443;-71
2021/12/14 00:16:59;;;;;;;35.95;27.67;;;11.20;99.90;;;11.42;86.08;102566.47;5113308;28;20127;-70
2021/12/14 00:19:29;;;;;;;35.15;28.80;;;11.20;99.90;;;11.28;86.71;102579.44;5113042;28;20040;-70
2021/12/14 00:22:05;;;;;;;38.25;29.67;;;11.00;99.90;;;11.38;86.81;102548.72;5113002;28;20063;-70
2021/12/14 00:24:34;;;;;;;37.10;29.77;;;11.00;99.90;;;11.24;86.77;102544.88;5113276;28;20043;-70
2021/12/14 00:27:07;;;;;;;38.47;30.77;;;11.00;99.90;;;11.27;87.38;102560.84;5112891;28;20035;-70
2021/12/14 00:29:39;;;;;;;41.10;32.55;;;11.00;99.90;;;11.24;87.24;102561.69;5094993;28;20043;-70
2021/12/14 00:32:17;;;;;;;39.63;32.10;;;11.00;99.90;;;11.30;87.41;102551.22;5113122;28;20078;-70
2021/12/14 00:34:46;;;;;;;40.35;32.67;;;11.00;99.90;;;11.29;87.48;102546.75;5094834;28;20550;-70
2021/12/14 00:37:20;;;;;;;41.17;32.85;;;11.00;99.90;;;11.23;87.68;102554.59;5113149;28;20035;-71
2021/12/14 00:39:51;;;;;;;39.65;32.47;;;11.00;99.90;;;11.27;87.91;102539.63;5112818;28;20043;-70
2021/12/14 00:42:22;;;;;;;40.60;32.90;;;10.90;99.90;;;11.25;87.84;102536.97;5113117;28;20081;-70
2021/12/14 00:44:51;;;;;;;44.25;32.53;;;11.00;99.90;;;11.24;87.86;102551.09;5113104;28;20055;-70
2021/12/14 00:47:19;;;;;;;39.58;32.10;;;11.00;99.90;;;11.31;87.89;102538.84;5113103;28;20043;-70
2021/12/14 00:49:49;;;;;;;43.22;33.60;;;11.10;99.90;;;11.28;87.81;102539.69;5113035;28;20418;-71
2021/12/14 00:52:18;;;;;;;42.33;33.38;;;11.00;99.90;;;11.28;87.85;102542.34;5112638;28;20063;-71
2021/12/14 00:54:47;;;;;;;41.63;34.53;;;11.00;99.90;;;11.16;87.96;102544.75;5094771;28;20044;-70
2021/12/14 00:57:17;;;;;;;41.42;33.10;;;11.00;99.90;;;11.27;87.87;102539.63;5113068;28;20127;-70
2021/12/14 00:59:46;;;;;;;40.67;33.20;;;11.00;99.90;;;11.28;88.01;102525.53;5094808;28;20044;-70
2021/12/14 01:02:19;;;;;;;43.92;34.25;;;11.00;99.90;;;11.26;87.84;102538.78;5094629;28;20496;-71
2021/12/14 01:04:54;;;;;;;41.85;34.17;;;11.00;99.90;;;11.25;88.13;102510.47;5112951;28;20040;-70
2021/12/14 01:07:30;;;;;;;42.17;34.13;;;10.90;99.90;;;11.12;88.22;102534.94;5094242;28;20056;-70
2021/12/14 01:10:07;;;;;;;40.83;34.58;;;10.90;99.90;;;11.20;88.63;102514.81;5094539;28;20047;-70
2021/12/14 01:12:43;;;;;;;46.83;35.25;;;10.90;99.90;;;11.12;88.65;102499.63;5112787;28;20040;-70
2021/12/14 01:15:27;;;;;;;41.75;33.25;;;10.80;99.90;;;11.12;88.79;102497.88;5116207;28;20047;-70
2021/12/14 01:18:15;;;;;;;45.40;36.05;;;10.90;99.90;;;11.07;89.04;102503.94;5098199;28;20484;-70
2021/12/14 01:20:47;;;;;;;45.78;36.17;;;10.80;99.90;;;10.99;89.10;102492.31;5116429;28;20446;-70
2021/12/14 01:23:28;;;;;;;43.35;35.70;;;10.70;99.90;;;10.95;89.60;102480.75;5116445;28;20434;-70
2021/12/14 01:26:00;;;;;;;47.13;35.65;;;10.70;99.90;;;10.87;89.56;102454.16;5116140;28;20575;-70
2021/12/14 01:28:31;;;;;;;46.85;35.83;;;10.70;99.90;;;10.96;89.62;102487.84;5097983;28;20050;-70
2021/12/14 01:31:09;;;;;;;41.72;34.78;;;10.70;99.90;;;11.13;89.49;102485.53;5116259;28;20107;-71
2021/12/14 01:33:41;;;;;;;44.20;35.03;;;10.80;99.90;;;11.06;89.06;102489.81;5097822;28;20044;-71
2021/12/14 01:36:24;;;;;;;44.28;35.47;;;10.90;99.90;;;11.05;89.29;102495.97;5097885;28;20100;-70
2021/12/14 01:39:22;;;;;;;41.13;34.22;;;10.80;99.90;;;11.09;89.16;102500.44;5097757;28;20408;-70
2021/12/14 01:41:57;;;;;;;41.67;34.38;;;10.80;99.90;;;10.99;89.15;102495.84;5097603;28;20496;-71
2021/12/14 01:44:33;;;;;;;39.78;32.80;;;10.80;99.90;;;11.02;89.26;102498.53;5097705;28;20044;-70
2021/12/14 01:47:07;;;;;;;41.63;32.58;;;10.70;99.90;;;11.04;89.24;102487.97;5097377;28;20048;-70
2021/12/14 01:50:01;;;;;;;41.10;33.95;;;10.80;99.90;;;11.03;89.32;102486.22;5115607;28;20572;-71
2021/12/14 01:52:41;;;;;;;40.85;32.88;;;10.80;99.90;;;11.05;89.58;102490.69;5097506;28;20044;-70
2021/12/14 01:55:15;;;;;;;40.63;32.33;;;10.80;99.90;;;11.07;89.14;102494.22;5097234;28;20051;-70
2021/12/14 01:57:45;;;;;;;39.38;32.50;;;10.80;99.90;;;11.08;89.05;102497.78;5097854;28;20183;-70
2021/12/14 02:00:23;;;;;;;44.00;33.38;;;10.80;99.90;;;11.04;89.10;102498.56;5097496;28;20044;-70
2021/12/14 02:02:51;;;;;;;42.30;32.55;;;10.80;99.90;;;10.90;89.26;102496.53;5115928;28;20552;-70
2021/12/14 02:05:26;;;;;;;39.03;33.20;;;10.80;99.90;;;10.93;89.61;102508.97;5115615;28;20092;-70
2021/12/14 02:07:58;;;;;;;40.22;33.42;;;10.70;99.90;;;10.89;89.70;102500.06;5093567;28;20109;-69
2021/12/14 02:10:35;;;;;;;37.58;31.70;;;10.70;99.90;;;11.00;89.62;102505.56;5094973;28;20040;-70
2021/12/14 02:13:05;;;;;;;39.45;32.83;;;10.70;99.90;;;11.02;89.34;102493.25;5095140;28;20040;-70
2021/12/14 02:15:39;;;;;;;40.35;31.55;;;10.70;99.90;;;10.95;89.68;102504.59;5094050;28;20131;-70
2021/12/14 02:18:17;;;;;;;41.95;33.45;;;10.70;99.90;;;10.93;89.63;102490.44;5093673;28;20489;-70
2021/12/14 02:20:48;;;;;;;41.97;33.97;;;10.70;99.90;;;11.04;89.50;102493.28;5093706;28;20048;-70
2021/12/14 02:23:17;;;;;;;39.28;32.20;;;10.80;99.90;;;10.94;89.65;102496.63;5095258;28;20048;-70
2021/12/14 02:25:45;;;;;;;45.78;33.67;;;10.70;99.90;;;10.81;90.05;102498.13;5093406;28;20047;-70
2021/12/14 02:28:17;;;;;;;46.55;32.55;;;10.60;99.90;;;10.90;90.02;102499.19;5093460;28;20060;-70
2021/12/14 02:30:51;;;;;;;42.47;33.30;;;10.70;99.90;;;10.88;89.85;102494.72;5093507;28;20044;-70
2021/12/14 02:33:28;;;;;;;41.33;32.78;;;10.60;99.90;;;10.72;89.83;102463.53;5093434;28;20058;-70
2021/12/14 02:36:08;;;;;;;42.80;34.20;;;10.60;99.90;;;10.78;90.08;102477.75;5093375;28;20482;-70
2021/12/14 02:38:41;;;;;;;42.15;33.38;;;10.60;99.90;;;10.74;90.23;102482.97;5093353;28;20052;-70
2021/12/14 02:41:12;;;;;;;46.03;34.90;;;10.50;99.90;;;10.78;90.15;102484.84;5093023;28;20146;-70
2021/12/14 02:43:52;;;;;;;41.70;33.35;;;10.50;99.90;;;10.83;90.13;102477.88;5092910;28;20048;-70
2021/12/14 02:46:32;;;;;;;43.53;34.40;;;10.50;99.90;;;10.83;89.95;102480.50;5093248;28;20393;-70
2021/12/14 02:49:05;;;;;;;42.30;33.88;;;10.60;99.90;;;10.77;90.26;102494.53;5093478;28;20229;-70
2021/12/14 02:51:38;;;;;;;41.90;33.60;;;10.50;99.90;;;10.73;90.37;102475.88;5094082;28;20059;-70
2021/12/14 02:54:12;;;;;;;42.78;33.78;;;10.50;99.90;;;10.78;90.13;102466.31;5092971;28;20043;-70
2021/12/14 02:56:44;;;;;;;43.28;33.22;;;10.50;99.90;;;10.81;90.02;102463.69;5094034;28;20047;-70
2021/12/14 02:59:17;;;;;;;40.35;31.85;;;10.50;99.90;;;10.77;90.02;102464.50;5092922;28;20052;-70
2021/12/14 03:01:48;;;;;;;41.75;33.80;;;10.50;99.90;;;10.71;89.95;102464.38;5092900;28;20117;-70
2021/12/14 03:04:19;;;;;;;39.38;32.33;;;10.50;99.90;;;10.74;90.15;102467.09;5092900;28;20076;-70
2021/12/14 03:06:54;;;;;;;38.60;31.45;;;10.50;99.90;;;10.73;90.22;102468.84;5092818;28;20044;-70
2021/12/14 03:09:37;;;;;;;37.13;31.30;;;10.50;99.90;;;10.77;90.49;102504.19;5092566;28;20508;-70
2021/12/14 03:12:10;;;;;;;39.40;30.95;;;10.50;99.90;;;10.80;90.02;102483.97;5092657;28;20052;-70
2021/12/14 03:14:48;;;;;;;38.97;31.88;;;10.50;99.90;;;10.78;90.17;102490.13;5092565;28;20047;-69
2021/12/14 03:17:17;;;;;;;39.53;31.80;;;10.50;99.90;;;10.81;89.93;102488.44;5092357;28;20044;-70
2021/12/14 03:19:54;;;;;;;42.20;32.03;;;10.60;99.90;;;10.79;89.96;102484.84;5092571;28;20397;-70
2021/12/14 03:22:31;;;;;;;39.13;31.70;;;10.50;99.90;;;10.86;89.82;102491.16;5093794;28;20079;-70
2021/12/14 03:25:00;;;;;;;38.63;31.38;;;10.50;99.90;;;10.90;89.58;102496.53;5093851;28;20486;-70
2021/12/14 03:27:29;;;;;;;34.60;29.73;;;10.60;99.90;;;11.01;89.33;102494.13;5092361;28;20039;-70
2021/12/14 03:29:59;;;;;;;35.35;29.17;;;10.70;99.90;;;11.10;88.81;102496.94;5093709;28;20040;-70
2021/12/14 03:32:29;;;;;;;36.28;30.27;;;10.80;99.90;;;11.15;88.23;102497.91;5092063;28;20056;-70
2021/12/14 03:34:58;;;;;;;33.10;28.38;;;10.80;99.90;;;11.12;88.19;102500.53;5092288;28;20048;-70
2021/12/14 03:37:27;;;;;;;36.28;30.50;;;10.80;99.90;;;11.10;88.13;102507.53;5091815;28;20040;-70
2021/12/14 03:40:01;;;;;;;35.88;28.80;;;10.80;99.90;;;11.11;88.23;102505.78;5092246;28;20079;-70
2021/12/14 03:42:38;;;;;;;33.38;27.25;;;10.80;99.90;;;11.13;87.82;102499.63;5092268;28;20102;-70
2021/12/14 03:45:15;;;;;;;36.72;28.75;;;10.90;99.90;;;11.14;87.70;102509.38;5092189;28;20447;-70
2021/12/14 03:47:49;;;;;;;37.30;29.20;;;10.80;99.90;;;11.19;87.59;102507.72;5092138;28;20078;-70
2021/12/14 03:50:24;;;;;;;33.25;27.60;;;10.90;99.90;;;11.05;87.41;102493.31;5092090;28;20066;-70
2021/12/14 03:52:54;;;;;;;35.92;27.88;;;10.90;99.90;;;11.21;87.19;102519.22;5092019;28;20048;-70
2021/12/14 03:55:28;;;;;;;31.63;27.00;;;10.90;99.90;;;10.97;86.92;102499.31;5093248;28;20489;-70
2021/12/14 03:57:58;;;;;;;31.42;26.20;;;10.90;99.90;;;10.93;87.22;102474.53;5091743;28;20052;-70
2021/12/14 04:00:34;;;;;;;33.75;26.40;;;10.90;99.90;;;11.14;87.27;102506.75;5091943;28;20131;-70
2021/12/14 04:03:08;;;;;;;31.40;26.27;;;10.90;99.90;;;11.16;86.88;102506.75;5092954;28;20582;-70
2021/12/14 04:05:48;;;;;;;29.00;24.85;;;10.90;99.90;;;11.15;86.83;102507.63;5092179;28;20134;-70
2021/12/14 04:08:22;;;;;;;28.52;25.20;;;10.90;99.90;;;10.97;86.56;102475.50;5091639;28;20052;-70
2021/12/14 04:10:54;;;;;;;30.50;24.40;;;10.90;99.90;;;10.98;86.47;102467.56;5091871;28;20488;-69
2021/12/14 04:13:27;;;;;;;28.88;24.63;;;10.90;99.90;;;10.92;86.47;102472.75;5093164;28;20040;-69
2021/12/14 04:15:58;;;;;;;29.60;24.42;;;10.90;99.90;;;11.09;86.60;102505.75;5091816;28;20067;-70
2021/12/14 04:18:27;;;;;;;28.08;23.40;;;10.80;99.90;;;11.08;86.65;102511.00;5092051;28;20428;-70
2021/12/14 04:20:58;;;;;;;30.55;24.13;;;10.80;99.90;;;11.04;86.87;102509.16;5091652;28;20047;-70
2021/12/14 04:23:33;;;;;;;26.83;23.48;;;10.80;99.90;;;11.00;86.80;102507.31;5091774;28;20098;-70
2021/12/14 04:26:06;;;;;;;28.10;24.00;;;10.70;99.90;;;10.89;87.12;102509.75;5091769;28;20044;-70
2021/12/14 04:28:41;;;;;;;28.02;24.17;;;10.60;99.90;;;10.96;87.11;102506.38;5091694;28;20059;-70
2021/12/14 04:31:11;;;;;;;27.80;24.10;;;10.70;99.90;;;10.98;86.93;102520.53;5091326;28;20048;-70
2021/12/14 04:33:43;;;;;;;30.33;23.83;;;10.70;99.90;;;11.03;86.84;102510.94;5091638;28;20105;-70
2021/12/14 04:36:20;;;;;;;30.15;23.33;;;10.80;99.90;;;10.86;87.12;102500.00;5091645;28;20126;-70
2021/12/14 04:38:56;;;;;;;28.42;24.15;;;10.70;99.90;;;10.96;87.02;102509.00;5091619;28;20079;-70
2021/12/14 04:52:56;;;;;;;29.40;23.23;;;10.90;99.90;;;11.22;85.78;102483.03;5095716;28;20283;-70
2021/12/14 04:55:26;;;;;;;29.33;23.20;;;10.90;99.90;;;11.17;85.57;102490.91;5096642;28;20036;-70
2021/12/14 04:57:55;;;;;;;26.08;22.52;;;10.90;99.90;;;11.11;85.56;102476.66;5095334;28;20044;-70
2021/12/14 05:00:29;;;;;;;29.17;22.90;;;10.90;99.90;;;11.16;85.49;102488.22;5096517;28;20188;-70
2021/12/14 05:03:12;;;;;;;29.23;23.63;;;10.90;99.90;;;11.05;85.57;102485.38;5095249;28;20138;-70
2021/12/14 05:05:48;;;;;;;26.63;22.27;;;10.90;99.90;;;11.14;85.48;102495.25;5095157;28;20048;-69
2021/12/14 05:11:17;;;;;;;29.23;23.25;;;10.90;99.90;;;11.03;85.62;102471.22;5095067;28;20084;-70
2021/12/14 05:13:51;;;;;;;27.45;23.10;;;10.80;99.90;;;11.08;85.59;102477.50;5094990;28;20079;-70
2021/12/14 05:16:32;;;;;;;27.23;22.73;;;10.80;99.90;;;11.13;85.54;102483.75;5094934;28;20105;-70
2021/12/14 05:19:26;;;;;;;29.98;23.42;;;10.80;99.90;;;11.12;85.25;102479.34;5094938;28;20130;-70
2021/12/14 05:22:04;;;;;;;28.88;22.98;;;10.90;99.90;;;11.03;85.44;102457.97;5094861;28;20048;-69
2021/12/14 05:24:41;;;;;;;28.05;22.73;;;10.90;99.90;;;11.19;85.33;102475.91;5094842;28;20535;-69
2021/12/14 05:27:16;;;;;;;31.02;22.52;;;10.90;99.90;;;11.11;85.32;102484.59;5094914;28;20044;-69
2021/12/14 05:29:45;;;;;;;29.90;24.23;;;10.90;99.90;;;11.16;85.52;102485.56;5094424;28;20075;-70
2021/12/14 05:32:18;;;;;;;32.83;24.27;;;10.80;99.90;;;11.13;85.30;102478.44;5094626;28;20052;-69
2021/12/14 05:34:50;;;;;;;28.45;22.95;;;10.90;99.90;;;11.04;85.27;102449.16;5094576;28;20044;-69
2021/12/14 05:37:26;;;;;;;30.38;22.95;;;10.90;99.90;;;11.02;85.48;102469.41;5094358;28;20123;-69
2021/12/14 05:39:59;;;;;;;28.48;22.75;;;10.80;99.90;;;11.11;85.53;102484.59;5094491;28;20400;-69
2021/12/14 05:45:34;;;;;;;31.73;24.88;;;10.80;99.90;;;10.97;85.76;102483.44;5094467;28;20481;-69
2021/12/14 05:48:04;;;;;;;31.90;24.67;;;10.70;99.90;;;10.93;86.04;102485.13;5094357;28;20052;-69
2021/12/14 05:50:43;;;;;;;34.03;26.38;;;10.70;99.90;;;11.02;86.25;102487.97;5094345;28;20050;-69
2021/12/14 05:53:20;;;;;;;32.50;25.73;;;10.70;99.90;;;11.04;86.27;102488.88;5095496;28;20455;-69
2021/12/14 05:55:50;;;;;;;32.17;24.20;;;10.80;99.90;;;11.09;86.08;102500.44;5094169;28;20143;-70
2021/12/14 05:58:22;;;;;;;33.05;24.88;;;10.90;99.90;;;11.10;86.02;102502.25;5094122;28;20081;-69
2021/12/14 06:00:56;;;;;;;35.10;25.17;;;10.80;99.90;;;11.15;85.86;102508.50;5094138;28;20059;-70
2021/12/14 06:03:29;;;;;;;35.15;26.77;;;10.90;99.90;;;11.15;85.89;102511.16;5094008;28;20048;-70
2021/12/14 06:06:02;;;;;;;34.10;26.55;;;10.90;99.90;;;11.07;85.78;102494.22;5093689;28;20082;-69
2021/12/14 06:08:34;;;;;;;36.63;25.60;;;10.80;99.90;;;11.13;85.76;102502.28;5093564;28;20486;-70
2021/12/14 06:11:24;;;;;;;33.38;25.35;;;10.80;99.90;;;11.14;85.44;102512.03;5093864;28;20051;-69
2021/12/14 06:13:55;;;;;;;33.10;25.40;;;10.90;99.90;;;11.03;85.98;102510.94;5095493;28;20044;-69
2021/12/14 06:16:29;;;;;;;36.30;25.38;;;10.80;99.90;;;10.88;85.96;102476.19;5093653;28;20524;-69
2021/12/14 06:19:18;;;;;;;34.08;26.30;;;10.70;99.90;;;11.08;86.19;102508.38;5093745;28;20144;-69
2021/12/14 06:21:51;;;;;;;35.08;26.75;;;10.80;99.90;;;11.03;85.92;102513.59;5093698;28;20114;-69
2021/12/14 06:24:23;;;;;;;33.63;25.95;;;10.70;99.90;;;11.03;86.41;102505.66;5093662;28;20497;-69
2021/12/14 06:27:00;;;;;;;37.75;25.92;;;10.70;99.90;;;10.97;86.32;102510.81;5093600;28;20048;-69
2021/12/14 06:29:35;;;;;;;38.00;27.90;;;10.70;99.90;;;10.94;86.77;102508.09;5093277;28;20071;-69
2021/12/14 06:32:10;;;;;;;39.53;28.30;;;10.70;99.90;;;11.00;86.37;102507.31;5093498;28;20051;-69
2021/12/14 06:34:43;;;;;;;38.35;27.48;;;10.70;99.90;;;10.96;86.83;102514.31;5094627;28;20048;-69
2021/12/14 06:38:11;;;;;;;36.50;27.27;;;10.70;99.90;;;10.91;86.89;102518.63;5093364;28;20059;-69
2021/12/14 06:40:45;;;;;;;39.53;28.08;;;10.60;99.90;;;10.95;86.56;102519.56;5093058;28;20044;-69
2021/12/14 06:43:18;;;;;;;38.17;28.35;;;10.70;99.90;;;10.92;86.90;102523.03;5094618;28;20064;-69
2021/12/14 06:45:55;;;;;;;34.40;26.75;;;10.70;99.90;;;10.96;86.96;102527.53;5093136;28;20048;-69
2021/12/14 06:48:33;;;;;;;34.80;26.95;;;10.60;99.90;;;10.94;87.01;102529.25;5094470;28;20063;-69
2021/12/14 06:51:08;;;;;;;37.72;28.27;;;10.70;99.90;;;10.94;87.10;102542.50;5094531;28;20036;-69
2021/12/14 06:53:50;;;;;;;42.17;29.05;;;10.60;99.90;;;10.89;87.29;102536.22;5109826;28;20066;-69
2021/12/14 06:56:38;;;;;;;38.10;28.65;;;10.60;99.90;;;10.93;87.19;102527.50;5094102;28;20504;-69
2021/12/14 06:59:36;;;;;;;40.97;27.67;;;10.70;99.90;;;10.91;87.24;102539.81;5092956;28;20051;-69
2021/12/14 07:02:13;;;;;;;39.72;27.60;;;10.60;99.90;;;10.91;87.47;102539.81;5094247;28;20044;-69
2021/12/14 07:05:00;;;;;;;37.72;27.67;;;10.60;99.90;;;11.00;87.53;102545.28;5092887;28;20068;-69
2021/12/14 07:07:34;;;;;;;41.60;28.95;;;10.70;99.90;;;11.01;87.40;102544.44;5092647;28;20101;-69
2021/12/14 07:10:10;;;;;;;38.83;28.25;;;10.70;99.90;;;10.94;87.51;102534.56;5092813;28;20493;-69
2021/12/14 07:12:40;;;;;;;39.10;28.42;;;10.70;99.90;;;10.97;87.40;102539.03;5093543;28;20047;-70
2021/12/14 07:15:16;;;;;;;38.35;28.50;;;10.70;99.90;;;10.97;87.71;102537.28;5093926;28;20036;-69
2021/12/14 07:17:53;;;;;;;40.83;29.52;;;10.70;99.90;;;11.01;87.69;102536.50;5093697;28;20044;-69
2021/12/14 07:20:28;;;;;;;42.72;29.67;;;10.70;99.90;;;10.98;87.64;102531.13;5093512;28;20044;-70
2021/12/14 07:23:02;;;;;;;40.85;29.23;;;10.70;99.90;;;11.01;87.88;102536.50;5092514;28;20489;-70
2021/12/14 07:25:32;;;;;;;40.13;29.38;;;10.70;99.90;;;10.98;87.98;102540.81;5093543;28;20439;-70
2021/12/14 07:28:07;;;;;;;45.45;31.13;;;10.70;99.90;;;10.99;88.23;102540.88;5092323;28;20109;-69
2021/12/14 07:30:38;;;;;;;45.50;30.75;;;10.70;99.90;;;11.05;88.13;102553.34;5093698;28;20089;-70
2021/12/14 07:33:14;;;;;;;43.67;29.10;;;10.70;99.90;;;11.09;88.11;102557.84;5093301;28;20051;-70
2021/12/14 07:35:53;;;;;;;41.78;30.40;;;10.80;99.90;;;11.05;88.28;102556.88;5091998;28;20044;-69
2021/12/14 07:38:45;;;;;;;42.70;30.73;;;10.70;99.90;;;11.13;88.42;102560.56;5093188;28;20070;-70
2021/12/14 07:41:27;;;;;;;42.13;29.80;;;10.80;99.90;;;11.16;88.46;102565.03;5093211;28;20047;-70
2021/12/14 07:44:01;;;;;;;44.13;31.80;;;10.90;99.90;;;11.16;88.58;102571.22;5093206;28;20044;-70
2021/12/14 07:46:40;;;;;;;44.65;30.67;;;10.90;99.90;;;11.18;88.44;102565.94;5093161;28;20398;-68
2021/12/14 07:49:20;;;;;;;41.83;30.58;;;10.90;99.90;;;11.20;88.66;102564.22;5093657;28;20040;-68
2021/12/14 07:51:53;;;;;;;42.58;31.33;;;11.00;99.90;;;11.07;88.31;102548.97;5093093;28;20044;-68
2021/12/14 07:54:26;;;;;;;47.10;31.48;;;10.90;99.90;;;11.19;88.65;102591.59;5093028;28;20413;-68
2021/12/14 07:57:02;;;;;;;43.50;30.50;;;10.90;99.90;;;11.23;88.54;102574.88;5092926;28;20500;-69
2021/12/14 07:59:35;;;;;;;48.10;30.88;;;10.90;99.90;;;11.27;88.69;102582.94;5091954;28;20437;-68
2021/12/14 08:02:15;;;;;;;44.45;30.92;;;11.00;99.90;;;11.24;88.72;102588.19;5091998;28;20066;-68
2021/12/14 08:04:50;;;;;;;46.20;31.35;;;10.90;99.90;;;11.31;88.64;102581.22;5093274;28;20040;-70
2021/12/14 08:07:26;;;;;;;44.30;31.35;;;11.00;99.90;;;11.26;88.96;102591.75;5093339;28;20510;-68
2021/12/14 08:10:05;;;;;;;47.40;32.00;;;10.90;99.90;;;11.30;88.87;102587.41;5113232;28;20039;-68
2021/12/14 08:12:40;;;;;;;46.25;31.67;;;11.00;99.90;;;11.35;89.21;102586.63;5113242;28;20110;-68
2021/12/14 08:15:20;;;;;;;46.80;30.65;;;11.00;99.90;;;11.35;89.11;102591.03;5113129;28;20040;-68
2021/12/14 08:18:05;;;;;;;44.67;30.73;;;11.10;99.90;;;11.31;89.47;102599.78;5113132;28;20043;-71
2021/12/14 08:20:39;;;;;;;46.13;32.33;;;11.00;99.90;;;11.27;89.47;102593.53;5113351;28;20044;-70
2021/12/14 08:23:18;;;;;;;44.92;31.77;;;11.00;99.90;;;11.33;89.73;102598.94;5115357;28;20043;-70
2021/12/14 08:25:47;;;;;;;47.33;31.58;;;11.00;99.90;;;11.28;89.74;102587.38;5117385;28;20047;-70
2021/12/14 08:28:21;;;;;;;44.80;31.58;;;11.10;99.90;;;11.34;89.80;102589.25;5098919;28;20130;-70
2021/12/14 08:31:10;;;;;;;46.38;32.63;;;11.00;99.90;;;11.36;89.70;102604.28;5099261;28;20150;-70
2021/12/14 08:33:38;;;;;;;41.20;30.50;;;11.10;99.90;;;11.43;89.81;102603.56;5117112;28;20040;-70
2021/12/14 08:36:13;;;;;;;44.70;31.88;;;11.10;99.90;;;11.38;89.80;102613.16;5116887;28;20067;-70
2021/12/14 08:38:42;;;;;;;45.85;31.92;;;11.10;99.90;;;10.84;89.93;102522.00;5098574;28;20055;-70
2021/12/14 08:41:18;;;;;;;45.78;31.30;;;11.10;99.90;;;11.38;89.86;102621.13;5116937;28;20035;-70
2021/12/14 08:43:52;;;;;;;50.75;32.97;;;11.10;99.90;;;11.40;90.07;102619.41;5117135;28;20535;-65
2021/12/14 08:46:25;;;;;;;47.30;31.63;;;11.10;99.90;;;11.38;90.00;102621.13;5117481;28;20067;-70
2021/12/14 08:48:57;;;;;;;43.30;31.13;;;11.10;99.90;;;11.39;89.94;102614.06;5117188;28;20079;-70
2021/12/14 08:51:31;;;;;;;44.10;30.77;;;11.10;99.90;;;11.40;90.15;102618.53;5116784;28;20035;-70
2021/12/14 08:54:07;;;;;;;46.75;32.40;;;11.10;99.90;;;11.40;89.85;102613.22;5116533;28;20405;-70
2021/12/14 08:56:43;;;;;;;42.67;30.05;;;11.20;99.90;;;11.41;89.79;102628.25;5116955;28;20040;-70
2021/12/14 08:59:12;;;;;;;41.20;30.98;;;11.10;99.90;;;11.36;89.92;102609.59;5116701;28;20032;-70
2021/12/14 09:01:42;;;;;;;46.05;31.73;;;11.10;99.90;;;11.38;89.80;102617.59;5116581;28;20072;-70
2021/12/14 09:04:17;;;;;;;42.63;30.17;;;11.10;99.90;;;10.90;89.94;102569.78;5116572;28;20445;-70
2021/12/14 09:06:51;;;;;;;46.20;31.20;;;11.10;99.90;;;11.00;89.88;102554.97;5116535;28;20052;-70
2021/12/14 09:09:22;;;;;;;44.58;31.35;;;11.10;99.90;;;11.34;90.07;102613.97;5116414;28;20044;-70
2021/12/14 09:11:57;;;;;;;43.25;30.05;;;11.00;99.90;;;11.29;90.16;102604.16;5116539;28;20040;-70
2021/12/14 09:14:26;;;;;;;44.08;30.55;;;11.10;99.90;;;11.30;90.32;102614.78;5116422;28;20493;-70
2021/12/14 09:16:58;;;;;;;44.70;30.75;;;11.00;99.90;;;11.35;90.39;102612.22;5098124;28;20089;-70
2021/12/14 09:19:34;;;;;;;43.80;30.20;;;11.10;99.90;;;11.35;90.13;102615.78;5116494;28;20047;-70
2021/12/14 09:22:08;;;;;;;42.17;29.77;;;11.10;99.90;;;11.43;90.00;102611.53;5116784;28;20089;-70
2021/12/14 09:24:38;;;;;;;40.38;29.48;;;11.10;99.90;;;11.41;89.91;102623.84;5097814;28;20066;-70
2021/12/14 09:27:12;;;;;;;45.35;31.10;;;11.20;99.90;;;11.27;89.99;102580.28;5116064;28;20062;-71
2021/12/14 09:29:41;;;;;;;44.78;30.50;;;11.10;99.90;;;11.35;89.90;102618.41;5116163;28;20040;-70
2021/12/14 09:32:17;;;;;;;43.20;29.58;;;11.20;99.90;;;11.41;90.09;102618.53;5116070;28;20089;-70
2021/12/14 09:34:47;;;;;;;47.72;30.15;;;11.20;99.90;;;11.39;90.27;102622.91;5115756;28;20036;-70
2021/12/14 09:37:18;;;;;;;43.57;29.33;;;11.10;99.90;;;11.41;90.35;102628.25;5116425;28;20104;-70
2021/12/14 09:39:53;;;;;;;42.90;28.73;;;11.10;99.90;;;11.17;90.24;102596.84;5115902;28;20273;-70
2021/12/14 09:42:25;;;;;;;42.97;29.83;;;11.10;99.90;;;11.30;90.54;102624.50;5115745;28;20520;-70
2021/12/14 09:44:57;;;;;;;46.10;31.13;;;11.10;99.90;;;11.20;90.77;102607.50;5097750;28;20051;-70
2021/12/14 09:47:32;;;;;;;41.38;29.80;;;11.10;99.90;;;11.34;90.86;102632.50;5115803;28;20487;-70
2021/12/14 09:50:08;;;;;;;43.58;29.10;;;11.10;99.90;;;10.82;91.05;102542.25;5115180;28;20039;-70
2021/12/14 09:52:43;;;;;;;40.58;29.85;;;11.10;99.90;;;11.30;91.16;102628.03;5115829;28;20055;-70
2021/12/14 09:55:17;;;;;;;45.55;30.65;;;11.00;99.90;;;11.33;91.33;102632.50;5115493;28;20043;-70
2021/12/14 09:57:54;;;;;;;50.08;31.60;;;11.10;99.90;;;11.29;91.44;102625.34;5115539;28;20039;-70
2021/12/14 10:00:29;;;;;;;45.65;30.92;;;11.00;99.90;;;11.34;91.50;102624.56;5115544;28;20101;-70
2021/12/14 10:03:01;;;;;;;41.90;29.40;;;11.10;99.90;;;11.34;91.68;102621.91;5115489;28;20094;-70
2021/12/14 10:05:36;;;;;;;46.85;29.98;;;11.10;99.90;;;11.47;91.52;102628.38;5115393;28;20043;-71
2021/12/14 10:08:15;;;;;;;45.90;29.35;;;11.10;99.90;;;11.43;91.61;102632.72;5115421;28;20052;-71
2021/12/14 10:10:48;;;;;;;45.30;29.80;;;11.10;99.90;;;11.41;91.71;102628.25;5115397;28;20039;-71
2021/12/14 10:13:17;;;;;;;43.00;29.13;;;11.10;99.90;;;11.44;91.90;102617.72;5115278;28;20558;-70
2021/12/14 10:15:49;;;;;;;44.08;30.50;;;11.20;99.90;;;11.40;92.10;102626.47;5115729;28;20089;-70
2021/12/14 10:18:22;;;;;;;46.38;29.67;;;11.10;99.90;;;11.36;92.24;102628.13;5115179;28;20055;-70
2021/12/14 10:20:54;;;;;;;41.72;28.65;;;11.10;99.90;;;11.52;92.42;102627.59;5115108;28;20045;-70
2021/12/14 10:23:26;;;;;;;47.63;29.83;;;11.20;99.90;;;11.52;92.51;102619.66;5115413;28;20040;-71
2021/12/14 10:25:56;;;;;;;39.03;28.92;;;11.20;99.90;;;11.47;92.52;102610.72;5097018;28;20477;-71
2021/12/14 10:28:28;;;;;;;46.50;29.55;;;11.30;99.90;;;11.60;92.25;102625.09;5115237;28;20048;-71
2021/12/14 10:31:00;;;;;;;41.83;29.55;;;11.30;99.90;;;11.55;92.59;102625.03;5115209;28;20039;-70
2021/12/14 10:33:32;;;;;;;42.63;28.58;;;11.30;99.90;;;11.56;92.32;102634.75;5096830;28;20055;-70
2021/12/14 10:36:15;;;;;;;46.67;28.42;;;11.30;99.90;;;11.45;92.81;102624.78;5115098;28;20047;-70
2021/12/14 10:39:05;;;;;;;46.38;28.33;;;11.30;99.90;;;11.46;93.55;102630.13;5096660;28;20535;-71
2021/12/14 10:44:22;;;;;;;42.65;29.80;;;11.30;99.90;;;11.44;93.88;102630.97;5114695;28;20040;-70
2021/12/14 10:46:54;;;;;;;44.08;30.65;;;11.20;99.90;;;11.35;94.24;102628.13;5113816;28;20184;-70
2021/12/14 10:49:26;;;;;;;50.88;31.15;;;11.20;99.90;;;11.43;94.63;102637.13;5096210;28;20146;-71
2021/12/14 10:52:00;;;;;;;46.58;32.30;;;11.10;99.90;;;11.47;94.73;102623.97;5114506;28;20087;-70